sensor_id;sensor_type;location;lat;lon;timestamp;P1;durP1;ratioP1;P2;durP2;ratioP2
65315;SDS011;51920;53.952;10.292;2024-01-15T00:02:24;7.87;;;2.07;;
65315;SDS011;51920;53.952;10.292;2024-01-15T00:04:51;7.45;;;2.25;;
65315;SDS011;51920;53.952;10.292;2024-01-15T00:07:18;7.30;;;2.30;;
65315;SDS011;51920;53.952;10.292;2024-01-15T00:09:45;9.20;;;2.55;;
65315;SDS011;51920;53.952;10.292;2024-01-15T00:12:12;4.68;;;2.17;;
65315;SDS011;51920;53.952;10.292;2024-01-15T00:14:38;5.97;;;1.90;;
65315;SDS011;51920;53.952;10.292;2024-01-15T00:17:05;5.18;;;2.10;;
65315;SDS011;51920;53.952;10.292;2024-01-15T00:19:32;8.60;;;2.78;;
65315;SDS011;51920;53.952;10.292;2024-01-15T00:21:59;5.47;;;2.00;;
65315;SDS011;51920;53.952;10.292;2024-01-15T00:24:26;6.00;;;1.92;;
65315;SDS011;51920;53.952;10.292;2024-01-15T00:26:52;8.03;;;2.00;;
65315;SDS011;51920;53.952;10.292;2024-01-15T00:29:20;7.45;;;1.73;;
65315;SDS011;51920;53.952;10.292;2024-01-15T00:31:46;12.50;;;2.25;;
65315;SDS011;51920;53.952;10.292;2024-01-15T00:34:13;7.25;;;1.80;;
65315;SDS011;51920;53.952;10.292;2024-01-15T00:36:40;9.85;;;2.00;;
65315;SDS011;51920;53.952;10.292;2024-01-15T00:39:07;5.57;;;1.60;;
65315;SDS011;51920;53.952;10.292;2024-01-15T00:41:34;9.20;;;1.88;;
65315;SDS011;51920;53.952;10.292;2024-01-15T00:44:01;9.02;;;1.95;;
65315;SDS011;51920;53.952;10.292;2024-01-15T00:46:29;7.07;;;1.83;;
65315;SDS011;51920;53.952;10.292;2024-01-15T00:48:56;8.55;;;1.73;;
65315;SDS011;51920;53.952;10.292;2024-01-15T00:51:23;9.17;;;1.90;;
65315;SDS011;51920;53.952;10.292;2024-01-15T00:53:49;6.03;;;1.90;;
65315;SDS011;51920;53.952;10.292;2024-01-15T00:56:16;12.63;;;2.15;;
65315;SDS011;51920;53.952;10.292;2024-01-15T00:58:43;9.30;;;2.13;;
65315;SDS011;51920;53.952;10.292;2024-01-15T01:01:10;6.07;;;2.00;;
65315;SDS011;51920;53.952;10.292;2024-01-15T01:03:37;6.93;;;1.60;;
65315;SDS011;51920;53.952;10.292;2024-01-15T01:06:04;6.35;;;1.77;;
65315;SDS011;51920;53.952;10.292;2024-01-15T01:08:30;6.32;;;1.90;;
65315;SDS011;51920;53.952;10.292;2024-01-15T01:10:57;7.63;;;1.80;;
65315;SDS011;51920;53.952;10.292;2024-01-15T01:13:24;6.20;;;2.00;;
65315;SDS011;51920;53.952;10.292;2024-01-15T01:15:51;4.20;;;1.50;;
65315;SDS011;51920;53.952;10.292;2024-01-15T01:18:18;6.05;;;1.80;;
65315;SDS011;51920;53.952;10.292;2024-01-15T01:20:45;7.28;;;1.80;;
65315;SDS011;51920;53.952;10.292;2024-01-15T01:23:11;7.55;;;1.90;;
65315;SDS011;51920;53.952;10.292;2024-01-15T01:25:38;10.18;;;2.17;;
65315;SDS011;51920;53.952;10.292;2024-01-15T01:28:05;7.50;;;1.80;;
65315;SDS011;51920;53.952;10.292;2024-01-15T01:30:32;9.60;;;2.25;;
65315;SDS011;51920;53.952;10.292;2024-01-15T01:32:59;8.35;;;2.28;;
65315;SDS011;51920;53.952;10.292;2024-01-15T01:35:25;10.55;;;2.10;;
65315;SDS011;51920;53.952;10.292;2024-01-15T01:37:52;8.77;;;2.75;;
65315;SDS011;51920;53.952;10.292;2024-01-15T01:40:19;10.40;;;2.00;;
65315;SDS011;51920;53.952;10.292;2024-01-15T01:42:47;11.55;;;1.90;;
65315;SDS011;51920;53.952;10.292;2024-01-15T01:45:14;11.48;;;2.45;;
65315;SDS011;51920;53.952;10.292;2024-01-15T01:47:41;11.90;;;2.08;;
65315;SDS011;51920;53.952;10.292;2024-01-15T01:50:08;8.85;;;2.15;;
65315;SDS011;51920;53.952;10.292;2024-01-15T01:52:35;15.60;;;2.00;;
65315;SDS011;51920;53.952;10.292;2024-01-15T01:55:02;13.65;;;2.08;;
65315;SDS011;51920;53.952;10.292;2024-01-15T01:57:30;11.52;;;2.20;;
65315;SDS011;51920;53.952;10.292;2024-01-15T01:59:58;12.05;;;2.10;;
65315;SDS011;51920;53.952;10.292;2024-01-15T02:02:25;10.55;;;2.13;;
65315;SDS011;51920;53.952;10.292;2024-01-15T02:04:52;14.03;;;2.20;;
65315;SDS011;51920;53.952;10.292;2024-01-15T02:07:19;11.38;;;2.03;;
65315;SDS011;51920;53.952;10.292;2024-01-15T02:09:46;8.52;;;2.00;;
65315;SDS011;51920;53.952;10.292;2024-01-15T02:12:13;11.63;;;2.13;;
65315;SDS011;51920;53.952;10.292;2024-01-15T02:14:40;9.98;;;2.22;;
65315;SDS011;51920;53.952;10.292;2024-01-15T02:17:07;12.27;;;2.10;;
65315;SDS011;51920;53.952;10.292;2024-01-15T02:19:34;10.15;;;1.80;;
65315;SDS011;51920;53.952;10.292;2024-01-15T02:22:01;10.40;;;2.40;;
65315;SDS011;51920;53.952;10.292;2024-01-15T02:24:27;10.75;;;2.20;;
65315;SDS011;51920;53.952;10.292;2024-01-15T02:26:54;13.88;;;2.28;;
65315;SDS011;51920;53.952;10.292;2024-01-15T02:29:21;14.87;;;2.40;;
65315;SDS011;51920;53.952;10.292;2024-01-15T02:31:49;13.20;;;2.58;;
65315;SDS011;51920;53.952;10.292;2024-01-15T02:34:15;14.77;;;2.67;;
65315;SDS011;51920;53.952;10.292;2024-01-15T02:36:42;13.52;;;2.45;;
65315;SDS011;51920;53.952;10.292;2024-01-15T02:39:09;16.02;;;2.63;;
65315;SDS011;51920;53.952;10.292;2024-01-15T02:41:36;11.23;;;2.57;;
65315;SDS011;51920;53.952;10.292;2024-01-15T02:44:03;13.70;;;2.17;;
65315;SDS011;51920;53.952;10.292;2024-01-15T02:46:30;10.00;;;2.78;;
65315;SDS011;51920;53.952;10.292;2024-01-15T02:48:56;9.10;;;2.20;;
65315;SDS011;51920;53.952;10.292;2024-01-15T02:51:23;10.77;;;2.20;;
65315;SDS011;51920;53.952;10.292;2024-01-15T02:53:51;13.23;;;2.00;;
65315;SDS011;51920;53.952;10.292;2024-01-15T02:56:18;14.95;;;2.80;;
65315;SDS011;51920;53.952;10.292;2024-01-15T02:58:45;12.23;;;2.45;;
65315;SDS011;51920;53.952;10.292;2024-01-15T03:01:12;14.98;;;2.95;;
65315;SDS011;51920;53.952;10.292;2024-01-15T03:03:39;16.45;;;2.80;;
65315;SDS011;51920;53.952;10.292;2024-01-15T03:06:07;16.57;;;2.73;;
65315;SDS011;51920;53.952;10.292;2024-01-15T03:08:34;12.93;;;2.90;;
65315;SDS011;51920;53.952;10.292;2024-01-15T03:11:02;10.80;;;2.38;;
65315;SDS011;51920;53.952;10.292;2024-01-15T03:13:28;9.45;;;2.03;;
65315;SDS011;51920;53.952;10.292;2024-01-15T03:15:55;16.75;;;2.00;;
65315;SDS011;51920;53.952;10.292;2024-01-15T03:18:22;10.57;;;2.40;;
65315;SDS011;51920;53.952;10.292;2024-01-15T03:20:49;7.72;;;1.77;;
65315;SDS011;51920;53.952;10.292;2024-01-15T03:23:16;6.60;;;2.00;;
65315;SDS011;51920;53.952;10.292;2024-01-15T03:25:43;7.22;;;1.63;;
65315;SDS011;51920;53.952;10.292;2024-01-15T03:28:11;10.15;;;2.20;;
65315;SDS011;51920;53.952;10.292;2024-01-15T03:30:38;5.10;;;1.70;;
65315;SDS011;51920;53.952;10.292;2024-01-15T03:33:05;8.40;;;1.80;;
65315;SDS011;51920;53.952;10.292;2024-01-15T03:35:31;8.43;;;2.20;;
65315;SDS011;51920;53.952;10.292;2024-01-15T03:37:58;10.48;;;2.33;;
65315;SDS011;51920;53.952;10.292;2024-01-15T03:40:25;12.90;;;1.92;;
65315;SDS011;51920;53.952;10.292;2024-01-15T03:42:53;7.83;;;1.83;;
65315;SDS011;51920;53.952;10.292;2024-01-15T03:45:20;11.25;;;2.05;;
65315;SDS011;51920;53.952;10.292;2024-01-15T03:47:47;10.00;;;2.38;;
65315;SDS011;51920;53.952;10.292;2024-01-15T03:50:14;5.05;;;2.05;;
65315;SDS011;51920;53.952;10.292;2024-01-15T03:52:41;9.45;;;2.10;;
65315;SDS011;51920;53.952;10.292;2024-01-15T03:55:08;6.87;;;1.80;;
65315;SDS011;51920;53.952;10.292;2024-01-15T03:57:35;11.82;;;2.28;;
65315;SDS011;51920;53.952;10.292;2024-01-15T04:00:01;8.57;;;2.00;;
65315;SDS011;51920;53.952;10.292;2024-01-15T04:02:30;6.95;;;1.75;;
65315;SDS011;51920;53.952;10.292;2024-01-15T04:04:57;12.00;;;1.83;;
65315;SDS011;51920;53.952;10.292;2024-01-15T04:07:24;10.03;;;2.27;;
65315;SDS011;51920;53.952;10.292;2024-01-15T04:09:51;9.15;;;2.20;;
65315;SDS011;51920;53.952;10.292;2024-01-15T04:12:17;4.95;;;1.58;;
65315;SDS011;51920;53.952;10.292;2024-01-15T04:14:44;13.15;;;2.15;;
65315;SDS011;51920;53.952;10.292;2024-01-15T04:17:11;13.52;;;2.55;;
65315;SDS011;51920;53.952;10.292;2024-01-15T04:19:38;9.40;;;1.80;;
65315;SDS011;51920;53.952;10.292;2024-01-15T04:22:05;10.98;;;2.00;;
65315;SDS011;51920;53.952;10.292;2024-01-15T04:24:32;7.68;;;2.00;;
65315;SDS011;51920;53.952;10.292;2024-01-15T04:26:59;11.88;;;2.15;;
65315;SDS011;51920;53.952;10.292;2024-01-15T04:29:26;7.55;;;2.40;;
65315;SDS011;51920;53.952;10.292;2024-01-15T04:31:53;10.13;;;2.10;;
65315;SDS011;51920;53.952;10.292;2024-01-15T04:34:19;11.20;;;2.30;;
65315;SDS011;51920;53.952;10.292;2024-01-15T04:36:46;10.25;;;2.88;;
65315;SDS011;51920;53.952;10.292;2024-01-15T04:39:13;12.88;;;1.88;;
65315;SDS011;51920;53.952;10.292;2024-01-15T04:41:40;8.57;;;2.00;;
65315;SDS011;51920;53.952;10.292;2024-01-15T04:44:07;6.50;;;1.90;;
65315;SDS011;51920;53.952;10.292;2024-01-15T04:46:34;12.18;;;2.38;;
65315;SDS011;51920;53.952;10.292;2024-01-15T04:49:01;10.90;;;2.20;;
65315;SDS011;51920;53.952;10.292;2024-01-15T04:51:27;8.85;;;2.20;;
65315;SDS011;51920;53.952;10.292;2024-01-15T04:53:54;13.10;;;2.40;;
65315;SDS011;51920;53.952;10.292;2024-01-15T04:56:21;13.13;;;2.30;;
65315;SDS011;51920;53.952;10.292;2024-01-15T04:58:48;11.98;;;2.22;;
65315;SDS011;51920;53.952;10.292;2024-01-15T05:01:15;12.02;;;2.70;;
65315;SDS011;51920;53.952;10.292;2024-01-15T05:03:43;11.75;;;2.30;;
65315;SDS011;51920;53.952;10.292;2024-01-15T05:06:10;14.80;;;2.70;;
65315;SDS011;51920;53.952;10.292;2024-01-15T05:08:37;13.57;;;2.37;;
65315;SDS011;51920;53.952;10.292;2024-01-15T05:11:04;14.48;;;2.65;;
65315;SDS011;51920;53.952;10.292;2024-01-15T05:13:30;13.68;;;2.42;;
65315;SDS011;51920;53.952;10.292;2024-01-15T05:15:57;11.70;;;2.22;;
65315;SDS011;51920;53.952;10.292;2024-01-15T05:18:24;13.27;;;2.50;;
65315;SDS011;51920;53.952;10.292;2024-01-15T05:20:51;19.80;;;2.77;;
65315;SDS011;51920;53.952;10.292;2024-01-15T05:23:19;12.60;;;2.55;;
65315;SDS011;51920;53.952;10.292;2024-01-15T05:25:46;13.60;;;2.38;;
65315;SDS011;51920;53.952;10.292;2024-01-15T05:28:13;10.43;;;2.38;;
65315;SDS011;51920;53.952;10.292;2024-01-15T05:30:40;15.80;;;3.28;;
65315;SDS011;51920;53.952;10.292;2024-01-15T05:33:07;9.30;;;2.10;;
65315;SDS011;51920;53.952;10.292;2024-01-15T05:35:34;15.88;;;2.55;;
65315;SDS011;51920;53.952;10.292;2024-01-15T05:38:01;13.15;;;3.15;;
65315;SDS011;51920;53.952;10.292;2024-01-15T05:40:29;8.35;;;2.40;;
65315;SDS011;51920;53.952;10.292;2024-01-15T05:42:56;15.80;;;2.60;;
65315;SDS011;51920;53.952;10.292;2024-01-15T05:45:23;10.17;;;2.30;;
65315;SDS011;51920;53.952;10.292;2024-01-15T05:47:52;7.75;;;2.08;;
65315;SDS011;51920;53.952;10.292;2024-01-15T05:50:19;11.93;;;2.75;;
65315;SDS011;51920;53.952;10.292;2024-01-15T05:52:46;12.40;;;2.47;;
65315;SDS011;51920;53.952;10.292;2024-01-15T05:55:13;10.55;;;2.55;;
65315;SDS011;51920;53.952;10.292;2024-01-15T05:57:40;11.57;;;2.70;;
65315;SDS011;51920;53.952;10.292;2024-01-15T06:00:07;11.32;;;2.38;;
65315;SDS011;51920;53.952;10.292;2024-01-15T06:02:36;8.25;;;2.25;;
65315;SDS011;51920;53.952;10.292;2024-01-15T06:05:04;12.93;;;2.80;;
65315;SDS011;51920;53.952;10.292;2024-01-15T06:07:32;10.25;;;2.60;;
65315;SDS011;51920;53.952;10.292;2024-01-15T06:10:00;12.20;;;2.30;;
65315;SDS011;51920;53.952;10.292;2024-01-15T06:12:28;9.18;;;2.25;;
65315;SDS011;51920;53.952;10.292;2024-01-15T06:14:54;12.65;;;2.58;;
65315;SDS011;51920;53.952;10.292;2024-01-15T06:17:21;9.90;;;2.20;;
65315;SDS011;51920;53.952;10.292;2024-01-15T06:19:48;14.38;;;2.75;;
65315;SDS011;51920;53.952;10.292;2024-01-15T06:22:15;13.47;;;2.50;;
65315;SDS011;51920;53.952;10.292;2024-01-15T06:24:42;12.60;;;2.50;;
65315;SDS011;51920;53.952;10.292;2024-01-15T06:27:09;9.88;;;2.67;;
65315;SDS011;51920;53.952;10.292;2024-01-15T06:29:37;12.68;;;2.33;;
65315;SDS011;51920;53.952;10.292;2024-01-15T06:32:04;10.60;;;2.58;;
65315;SDS011;51920;53.952;10.292;2024-01-15T06:34:31;9.70;;;2.20;;
65315;SDS011;51920;53.952;10.292;2024-01-15T06:36:58;10.38;;;2.70;;
65315;SDS011;51920;53.952;10.292;2024-01-15T06:39:25;15.52;;;2.70;;
65315;SDS011;51920;53.952;10.292;2024-01-15T06:41:52;15.07;;;2.55;;
65315;SDS011;51920;53.952;10.292;2024-01-15T06:44:18;12.73;;;2.70;;
65315;SDS011;51920;53.952;10.292;2024-01-15T06:46:47;15.80;;;2.57;;
65315;SDS011;51920;53.952;10.292;2024-01-15T06:49:14;12.02;;;2.25;;
65315;SDS011;51920;53.952;10.292;2024-01-15T06:51:41;14.82;;;2.50;;
65315;SDS011;51920;53.952;10.292;2024-01-15T06:54:09;8.70;;;2.17;;
65315;SDS011;51920;53.952;10.292;2024-01-15T06:56:36;8.93;;;2.88;;
65315;SDS011;51920;53.952;10.292;2024-01-15T06:59:03;14.30;;;2.27;;
65315;SDS011;51920;53.952;10.292;2024-01-15T07:01:29;10.38;;;2.47;;
65315;SDS011;51920;53.952;10.292;2024-01-15T07:03:56;11.85;;;1.95;;
65315;SDS011;51920;53.952;10.292;2024-01-15T07:06:23;9.43;;;2.47;;
65315;SDS011;51920;53.952;10.292;2024-01-15T07:08:50;11.60;;;2.30;;
65315;SDS011;51920;53.952;10.292;2024-01-15T07:11:17;12.10;;;2.10;;
65315;SDS011;51920;53.952;10.292;2024-01-15T07:13:44;12.70;;;2.08;;
65315;SDS011;51920;53.952;10.292;2024-01-15T07:16:11;9.43;;;2.90;;
65315;SDS011;51920;53.952;10.292;2024-01-15T07:18:37;11.25;;;2.10;;
65315;SDS011;51920;53.952;10.292;2024-01-15T07:21:04;15.35;;;2.53;;
65315;SDS011;51920;53.952;10.292;2024-01-15T07:23:31;12.10;;;2.37;;
65315;SDS011;51920;53.952;10.292;2024-01-15T07:25:58;12.18;;;2.47;;
65315;SDS011;51920;53.952;10.292;2024-01-15T07:28:25;13.93;;;3.10;;
65315;SDS011;51920;53.952;10.292;2024-01-15T07:30:52;14.57;;;2.95;;
65315;SDS011;51920;53.952;10.292;2024-01-15T07:33:19;13.38;;;2.60;;
65315;SDS011;51920;53.952;10.292;2024-01-15T07:35:46;9.30;;;2.50;;
65315;SDS011;51920;53.952;10.292;2024-01-15T07:38:13;12.98;;;2.80;;
65315;SDS011;51920;53.952;10.292;2024-01-15T07:40:40;10.48;;;2.50;;
65315;SDS011;51920;53.952;10.292;2024-01-15T07:43:07;13.35;;;2.33;;
65315;SDS011;51920;53.952;10.292;2024-01-15T07:45:38;12.10;;;2.60;;
65315;SDS011;51920;53.952;10.292;2024-01-15T07:48:06;10.80;;;2.60;;
65315;SDS011;51920;53.952;10.292;2024-01-15T07:50:34;14.52;;;2.63;;
65315;SDS011;51920;53.952;10.292;2024-01-15T07:53:01;14.40;;;2.60;;
65315;SDS011;51920;53.952;10.292;2024-01-15T07:55:27;14.35;;;2.58;;
65315;SDS011;51920;53.952;10.292;2024-01-15T07:57:54;14.60;;;2.30;;
65315;SDS011;51920;53.952;10.292;2024-01-15T08:00:28;12.03;;;2.43;;
65315;SDS011;51920;53.952;10.292;2024-01-15T08:02:54;13.40;;;2.67;;
65315;SDS011;51920;53.952;10.292;2024-01-15T08:05:21;9.32;;;2.40;;
65315;SDS011;51920;53.952;10.292;2024-01-15T08:07:49;9.57;;;2.17;;
65315;SDS011;51920;53.952;10.292;2024-01-15T08:10:15;9.20;;;2.47;;
65315;SDS011;51920;53.952;10.292;2024-01-15T08:12:42;9.33;;;2.13;;
65315;SDS011;51920;53.952;10.292;2024-01-15T08:15:09;11.48;;;2.13;;
65315;SDS011;51920;53.952;10.292;2024-01-15T08:17:36;7.72;;;2.80;;
65315;SDS011;51920;53.952;10.292;2024-01-15T08:20:03;8.30;;;2.20;;
65315;SDS011;51920;53.952;10.292;2024-01-15T08:22:31;9.27;;;2.40;;
65315;SDS011;51920;53.952;10.292;2024-01-15T08:24:58;9.77;;;2.10;;
65315;SDS011;51920;53.952;10.292;2024-01-15T08:27:25;13.30;;;3.55;;
65315;SDS011;51920;53.952;10.292;2024-01-15T08:29:52;9.15;;;3.08;;
65315;SDS011;51920;53.952;10.292;2024-01-15T08:32:19;9.25;;;2.88;;
65315;SDS011;51920;53.952;10.292;2024-01-15T08:34:46;9.95;;;2.40;;
65315;SDS011;51920;53.952;10.292;2024-01-15T08:37:15;11.23;;;2.73;;
65315;SDS011;51920;53.952;10.292;2024-01-15T08:39:42;9.70;;;2.33;;
65315;SDS011;51920;53.952;10.292;2024-01-15T08:42:09;8.95;;;2.67;;
65315;SDS011;51920;53.952;10.292;2024-01-15T08:44:36;10.38;;;2.70;;
65315;SDS011;51920;53.952;10.292;2024-01-15T08:47:02;12.55;;;2.50;;
65315;SDS011;51920;53.952;10.292;2024-01-15T08:49:29;14.67;;;2.80;;
65315;SDS011;51920;53.952;10.292;2024-01-15T08:51:56;10.52;;;2.50;;
65315;SDS011;51920;53.952;10.292;2024-01-15T08:54:23;9.55;;;2.65;;
65315;SDS011;51920;53.952;10.292;2024-01-15T08:56:50;6.32;;;2.03;;
65315;SDS011;51920;53.952;10.292;2024-01-15T08:59:17;8.50;;;2.30;;
65315;SDS011;51920;53.952;10.292;2024-01-15T09:01:53;9.67;;;2.37;;
65315;SDS011;51920;53.952;10.292;2024-01-15T09:04:23;6.70;;;2.13;;
65315;SDS011;51920;53.952;10.292;2024-01-15T09:06:51;11.80;;;3.03;;
65315;SDS011;51920;53.952;10.292;2024-01-15T09:09:17;8.77;;;2.85;;
65315;SDS011;51920;53.952;10.292;2024-01-15T09:11:44;7.82;;;2.83;;
65315;SDS011;51920;53.952;10.292;2024-01-15T09:14:11;8.50;;;2.40;;
65315;SDS011;51920;53.952;10.292;2024-01-15T09:16:39;7.53;;;2.58;;
65315;SDS011;51920;53.952;10.292;2024-01-15T09:19:06;11.75;;;2.72;;
65315;SDS011;51920;53.952;10.292;2024-01-15T09:21:33;9.68;;;2.17;;
65315;SDS011;51920;53.952;10.292;2024-01-15T09:24:00;8.02;;;2.30;;
65315;SDS011;51920;53.952;10.292;2024-01-15T09:26:27;12.70;;;2.60;;
65315;SDS011;51920;53.952;10.292;2024-01-15T09:28:54;8.05;;;2.13;;
65315;SDS011;51920;53.952;10.292;2024-01-15T09:31:21;10.55;;;2.28;;
65315;SDS011;51920;53.952;10.292;2024-01-15T09:33:48;8.77;;;2.35;;
65315;SDS011;51920;53.952;10.292;2024-01-15T09:36:18;8.55;;;2.35;;
65315;SDS011;51920;53.952;10.292;2024-01-15T09:38:45;8.77;;;2.00;;
65315;SDS011;51920;53.952;10.292;2024-01-15T09:41:12;9.23;;;2.20;;
65315;SDS011;51920;53.952;10.292;2024-01-15T09:43:38;6.90;;;2.38;;
65315;SDS011;51920;53.952;10.292;2024-01-15T09:46:06;7.85;;;2.35;;
65315;SDS011;51920;53.952;10.292;2024-01-15T09:48:34;9.77;;;3.13;;
65315;SDS011;51920;53.952;10.292;2024-01-15T09:51:01;5.97;;;2.00;;
65315;SDS011;51920;53.952;10.292;2024-01-15T09:53:29;6.32;;;2.60;;
65315;SDS011;51920;53.952;10.292;2024-01-15T09:55:57;5.32;;;2.25;;
65315;SDS011;51920;53.952;10.292;2024-01-15T09:58:24;8.43;;;2.60;;
65315;SDS011;51920;53.952;10.292;2024-01-15T10:00:51;6.40;;;2.40;;
65315;SDS011;51920;53.952;10.292;2024-01-15T10:03:19;6.20;;;2.73;;
65315;SDS011;51920;53.952;10.292;2024-01-15T10:05:47;8.70;;;3.50;;
65315;SDS011;51920;53.952;10.292;2024-01-15T10:08:15;7.75;;;3.40;;
65315;SDS011;51920;53.952;10.292;2024-01-15T10:10:42;9.27;;;3.25;;
65315;SDS011;51920;53.952;10.292;2024-01-15T10:13:09;5.78;;;2.70;;
65315;SDS011;51920;53.952;10.292;2024-01-15T10:15:38;8.23;;;2.70;;
65315;SDS011;51920;53.952;10.292;2024-01-15T10:18:05;7.20;;;2.40;;
65315;SDS011;51920;53.952;10.292;2024-01-15T10:20:32;6.97;;;2.80;;
65315;SDS011;51920;53.952;10.292;2024-01-15T10:22:59;5.88;;;2.50;;
65315;SDS011;51920;53.952;10.292;2024-01-15T10:25:26;3.92;;;2.50;;
65315;SDS011;51920;53.952;10.292;2024-01-15T10:28:00;2.30;;;2.00;;
65315;SDS011;51920;53.952;10.292;2024-01-15T10:30:27;2.35;;;1.70;;
65315;SDS011;51920;53.952;10.292;2024-01-15T10:32:58;4.18;;;2.03;;
65315;SDS011;51920;53.952;10.292;2024-01-15T10:35:33;2.85;;;1.70;;
65315;SDS011;51920;53.952;10.292;2024-01-15T10:38:01;5.20;;;1.63;;
65315;SDS011;51920;53.952;10.292;2024-01-15T10:40:29;2.80;;;1.60;;
65315;SDS011;51920;53.952;10.292;2024-01-15T10:42:56;3.10;;;1.70;;
65315;SDS011;51920;53.952;10.292;2024-01-15T10:45:23;3.88;;;1.92;;
65315;SDS011;51920;53.952;10.292;2024-01-15T10:47:51;3.95;;;1.77;;
65315;SDS011;51920;53.952;10.292;2024-01-15T10:50:20;4.07;;;1.80;;
65315;SDS011;51920;53.952;10.292;2024-01-15T10:52:47;6.50;;;1.57;;
65315;SDS011;51920;53.952;10.292;2024-01-15T10:55:14;4.32;;;2.33;;
65315;SDS011;51920;53.952;10.292;2024-01-15T10:57:41;3.88;;;2.20;;
65315;SDS011;51920;53.952;10.292;2024-01-15T11:00:11;3.63;;;2.08;;
65315;SDS011;51920;53.952;10.292;2024-01-15T11:02:43;3.05;;;1.75;;
65315;SDS011;51920;53.952;10.292;2024-01-15T11:05:11;5.00;;;1.50;;
65315;SDS011;51920;53.952;10.292;2024-01-15T11:07:39;4.05;;;1.60;;
65315;SDS011;51920;53.952;10.292;2024-01-15T11:10:37;1.60;;;1.50;;
65315;SDS011;51920;53.952;10.292;2024-01-15T11:13:20;3.08;;;1.58;;
65315;SDS011;51920;53.952;10.292;2024-01-15T11:16:08;2.40;;;1.98;;
65315;SDS011;51920;53.952;10.292;2024-01-15T11:18:39;4.63;;;2.23;;
65315;SDS011;51920;53.952;10.292;2024-01-15T11:21:25;4.43;;;2.13;;
65315;SDS011;51920;53.952;10.292;2024-01-15T11:24:00;3.63;;;2.50;;
65315;SDS011;51920;53.952;10.292;2024-01-15T11:28:55;3.42;;;1.88;;
65315;SDS011;51920;53.952;10.292;2024-01-15T11:34:18;5.45;;;2.17;;
65315;SDS011;51920;53.952;10.292;2024-01-15T11:41:59;5.00;;;2.60;;
65315;SDS011;51920;53.952;10.292;2024-01-15T11:44:28;5.17;;;2.60;;
65315;SDS011;51920;53.952;10.292;2024-01-15T11:52:17;4.15;;;3.13;;
65315;SDS011;51920;53.952;10.292;2024-01-15T11:54:49;4.90;;;3.20;;
65315;SDS011;51920;53.952;10.292;2024-01-15T11:57:31;5.30;;;3.07;;
65315;SDS011;51920;53.952;10.292;2024-01-15T12:00:07;8.00;;;4.25;;
65315;SDS011;51920;53.952;10.292;2024-01-15T12:02:41;5.70;;;3.92;;
65315;SDS011;51920;53.952;10.292;2024-01-15T12:05:12;4.13;;;2.80;;
65315;SDS011;51920;53.952;10.292;2024-01-15T12:07:41;4.90;;;3.00;;
65315;SDS011;51920;53.952;10.292;2024-01-15T12:10:09;20.50;;;8.90;;
65315;SDS011;51920;53.952;10.292;2024-01-15T12:15:29;8.73;;;4.03;;
65315;SDS011;51920;53.952;10.292;2024-01-15T12:17:57;10.25;;;4.53;;
65315;SDS011;51920;53.952;10.292;2024-01-15T12:20:26;4.35;;;2.90;;
65315;SDS011;51920;53.952;10.292;2024-01-15T12:22:53;5.20;;;2.53;;
65315;SDS011;51920;53.952;10.292;2024-01-15T12:25:22;4.40;;;2.75;;
65315;SDS011;51920;53.952;10.292;2024-01-15T12:27:51;5.00;;;3.13;;
65315;SDS011;51920;53.952;10.292;2024-01-15T12:30:18;4.07;;;2.08;;
65315;SDS011;51920;53.952;10.292;2024-01-15T12:32:46;3.10;;;2.30;;
65315;SDS011;51920;53.952;10.292;2024-01-15T12:35:15;2.43;;;2.07;;
65315;SDS011;51920;53.952;10.292;2024-01-15T12:37:42;5.50;;;2.20;;
65315;SDS011;51920;53.952;10.292;2024-01-15T12:40:10;4.00;;;2.53;;
65315;SDS011;51920;53.952;10.292;2024-01-15T12:42:37;2.72;;;2.00;;
65315;SDS011;51920;53.952;10.292;2024-01-15T12:45:06;5.50;;;2.30;;
65315;SDS011;51920;53.952;10.292;2024-01-15T12:47:34;5.17;;;2.30;;
65315;SDS011;51920;53.952;10.292;2024-01-15T12:50:06;5.43;;;2.40;;
65315;SDS011;51920;53.952;10.292;2024-01-15T12:52:35;3.17;;;2.33;;
65315;SDS011;51920;53.952;10.292;2024-01-15T12:55:07;4.13;;;2.25;;
65315;SDS011;51920;53.952;10.292;2024-01-15T12:57:35;5.15;;;2.80;;
65315;SDS011;51920;53.952;10.292;2024-01-15T13:00:03;3.20;;;2.00;;
65315;SDS011;51920;53.952;10.292;2024-01-15T13:02:34;4.25;;;2.10;;
65315;SDS011;51920;53.952;10.292;2024-01-15T13:05:01;2.60;;;2.00;;
65315;SDS011;51920;53.952;10.292;2024-01-15T13:07:30;3.13;;;2.10;;
65315;SDS011;51920;53.952;10.292;2024-01-15T13:09:57;3.47;;;2.10;;
65315;SDS011;51920;53.952;10.292;2024-01-15T13:12:27;4.77;;;2.00;;
65315;SDS011;51920;53.952;10.292;2024-01-15T13:14:53;4.65;;;2.22;;
65315;SDS011;51920;53.952;10.292;2024-01-15T13:17:20;4.22;;;2.35;;
65315;SDS011;51920;53.952;10.292;2024-01-15T13:19:48;3.88;;;2.30;;
65315;SDS011;51920;53.952;10.292;2024-01-15T13:22:18;4.80;;;2.55;;
65315;SDS011;51920;53.952;10.292;2024-01-15T13:24:48;3.20;;;1.90;;
65315;SDS011;51920;53.952;10.292;2024-01-15T13:27:15;5.40;;;2.60;;
65315;SDS011;51920;53.952;10.292;2024-01-15T13:29:41;4.45;;;2.45;;
65315;SDS011;51920;53.952;10.292;2024-01-15T13:32:08;6.72;;;2.55;;
65315;SDS011;51920;53.952;10.292;2024-01-15T13:34:41;4.90;;;2.97;;
65315;SDS011;51920;53.952;10.292;2024-01-15T13:37:08;3.27;;;2.07;;
65315;SDS011;51920;53.952;10.292;2024-01-15T13:39:36;3.15;;;2.20;;
65315;SDS011;51920;53.952;10.292;2024-01-15T13:42:03;5.10;;;2.80;;
65315;SDS011;51920;53.952;10.292;2024-01-15T13:44:30;4.82;;;2.65;;
65315;SDS011;51920;53.952;10.292;2024-01-15T13:46:57;6.38;;;3.03;;
65315;SDS011;51920;53.952;10.292;2024-01-15T13:49:24;5.07;;;2.50;;
65315;SDS011;51920;53.952;10.292;2024-01-15T13:51:51;5.47;;;2.50;;
65315;SDS011;51920;53.952;10.292;2024-01-15T13:54:18;4.93;;;3.25;;
65315;SDS011;51920;53.952;10.292;2024-01-15T13:56:47;9.07;;;3.92;;
65315;SDS011;51920;53.952;10.292;2024-01-15T13:59:14;6.72;;;3.60;;
65315;SDS011;51920;53.952;10.292;2024-01-15T14:01:42;7.13;;;2.93;;
65315;SDS011;51920;53.952;10.292;2024-01-15T14:04:09;6.00;;;3.33;;
65315;SDS011;51920;53.952;10.292;2024-01-15T14:06:35;3.35;;;2.85;;
65315;SDS011;51920;53.952;10.292;2024-01-15T14:09:02;4.57;;;2.38;;
65315;SDS011;51920;53.952;10.292;2024-01-15T14:11:31;4.20;;;2.40;;
65315;SDS011;51920;53.952;10.292;2024-01-15T14:13:58;4.30;;;1.80;;
65315;SDS011;51920;53.952;10.292;2024-01-15T14:16:25;7.13;;;2.88;;
65315;SDS011;51920;53.952;10.292;2024-01-15T14:18:51;3.20;;;2.40;;
65315;SDS011;51920;53.952;10.292;2024-01-15T14:21:18;3.72;;;2.60;;
65315;SDS011;51920;53.952;10.292;2024-01-15T14:23:45;4.82;;;2.60;;
65315;SDS011;51920;53.952;10.292;2024-01-15T14:26:12;6.93;;;2.30;;
65315;SDS011;51920;53.952;10.292;2024-01-15T14:28:40;5.38;;;2.78;;
65315;SDS011;51920;53.952;10.292;2024-01-15T14:31:07;6.50;;;2.85;;
65315;SDS011;51920;53.952;10.292;2024-01-15T14:33:35;7.07;;;3.63;;
65315;SDS011;51920;53.952;10.292;2024-01-15T14:36:04;6.75;;;3.75;;
65315;SDS011;51920;53.952;10.292;2024-01-15T14:38:34;6.17;;;2.70;;
65315;SDS011;51920;53.952;10.292;2024-01-15T14:41:01;4.28;;;3.00;;
65315;SDS011;51920;53.952;10.292;2024-01-15T14:43:28;6.30;;;3.10;;
65315;SDS011;51920;53.952;10.292;2024-01-15T14:45:55;7.40;;;2.70;;
65315;SDS011;51920;53.952;10.292;2024-01-15T14:48:23;6.43;;;2.85;;
65315;SDS011;51920;53.952;10.292;2024-01-15T14:50:50;4.40;;;2.73;;